Time;durP1;ratioP1;P1;durP2;ratioP2;P2;SDS_P1;SDS_P2;PMS_P1;PMS_P2;Temp;Humidity;BMP_temperature;BMP_pressure;BME280_temperature;BME280_humidity;BME280_pressure;Samples;Min_cycle;Max_cycle;Signal;HPM_P1;HPM_P2
2022/11/24 00:01:47;;;;;;;17.20;3.63;;;;;;;;;;5072565;28;20060;-58
2022/11/24 00:04:12;;;;;;;18.63;4.00;;;;;;;;;;5074363;28;20094;-58
2022/11/24 00:06:38;;;;;;;17.00;3.90;;;;;;;;;;5082474;28;20120;-58
2022/11/24 00:09:03;;;;;;;19.40;3.95;;;;;;;;;;5073097;28;20546;-58
2022/11/24 00:11:29;;;;;;;17.30;3.95;;;;;;;;;;5075601;28;20097;-58
2022/11/24 00:13:54;;;;;;;16.75;3.70;;;;;;;;;;5086037;28;20464;-58
2022/11/24 00:16:21;;;;;;;26.23;4.07;;;;;;;;;;5075226;28;20028;-58
2022/11/24 00:18:46;;;;;;;21.33;3.95;;;;;;;;;;5077309;28;20016;-58
2022/11/24 00:21:12;;;;;;;25.25;4.65;;;;;;;;;;5086867;28;20366;-58
2022/11/24 00:23:37;;;;;;;15.80;3.55;;;;;;;;;;5074794;28;20073;-58
2022/11/24 00:26:07;;;;;;;20.77;4.90;;;;;;;;;;5071512;28;20417;-58
2022/11/24 00:28:32;;;;;;;22.75;4.55;;;;;;;;;;5087226;28;20307;-59
2022/11/24 00:30:57;;;;;;;17.55;4.07;;;;;;;;;;5074002;28;20466;-58
2022/11/24 00:33:23;;;;;;;16.13;4.30;;;;;;;;;;5075902;28;20021;-58
2022/11/24 00:35:57;;;;;;;23.00;4.28;;;;;;;;;;5080185;28;20030;-58
2022/11/24 00:38:23;;;;;;;12.75;3.90;;;;;;;;;;5079089;28;20095;-58
2022/11/24 00:40:48;;;;;;;15.07;3.85;;;;;;;;;;5079689;28;20016;-58
2022/11/24 00:43:14;;;;;;;16.00;3.72;;;;;;;;;;5079193;28;20263;-58
2022/11/24 00:45:39;;;;;;;18.90;4.13;;;;;;;;;;5081063;28;20482;-58
2022/11/24 00:48:04;;;;;;;18.80;3.92;;;;;;;;;;5106574;27;20106;-57
2022/11/24 00:50:30;;;;;;;22.15;4.15;;;;;;;;;;5078847;28;20032;-57
2022/11/24 00:52:55;;;;;;;30.58;4.53;;;;;;;;;;5081898;28;20016;-57
2022/11/24 00:55:20;;;;;;;21.58;4.10;;;;;;;;;;5077115;28;20107;-57
2022/11/24 00:57:45;;;;;;;26.23;3.88;;;;;;;;;;5079468;28;20023;-59
2022/11/24 01:00:12;;;;;;;28.70;4.53;;;;;;;;;;5083040;28;20047;-57
2022/11/24 01:02:37;;;;;;;14.38;3.55;;;;;;;;;;5086719;28;20076;-57
2022/11/24 01:05:02;;;;;;;19.80;3.75;;;;;;;;;;5079630;28;20051;-58
2022/11/24 01:07:28;;;;;;;22.77;4.40;;;;;;;;;;5089943;28;20040;-56
2022/11/24 01:09:53;;;;;;;16.95;3.00;;;;;;;;;;5078839;28;20465;-56
2022/11/24 01:12:18;;;;;;;17.10;2.83;;;;;;;;;;5074662;28;20491;-56
2022/11/24 01:14:43;;;;;;;21.48;3.95;;;;;;;;;;5095861;28;20559;-56
2022/11/24 01:17:09;;;;;;;16.00;2.92;;;;;;;;;;5083044;28;20020;-57
2022/11/24 01:19:34;;;;;;;22.33;4.00;;;;;;;;;;5084246;28;20024;-56
2022/11/24 01:21:59;;;;;;;16.55;3.40;;;;;;;;;;5096474;28;20028;-59
2022/11/24 01:24:24;;;;;;;20.40;3.80;;;;;;;;;;5081556;28;20016;-58
2022/11/24 01:26:49;;;;;;;16.20;3.33;;;;;;;;;;5080267;28;20347;-56
2022/11/24 01:29:15;;;;;;;18.90;3.20;;;;;;;;;;5082129;28;20024;-59
2022/11/24 01:31:40;;;;;;;15.00;3.33;;;;;;;;;;5083241;28;20505;-57
2022/11/24 01:34:05;;;;;;;21.58;4.07;;;;;;;;;;5089379;28;20532;-59
2022/11/24 01:36:30;;;;;;;18.75;3.72;;;;;;;;;;5071228;28;20180;-57
2022/11/24 01:38:56;;;;;;;14.98;3.70;;;;;;;;;;5077553;28;20514;-57
2022/11/24 01:41:22;;;;;;;24.23;4.60;;;;;;;;;;5080317;28;20044;-57
2022/11/24 01:43:47;;;;;;;18.55;3.85;;;;;;;;;;5075334;28;20061;-56
2022/11/24 01:46:12;;;;;;;12.85;3.50;;;;;;;;;;5077021;28;20038;-58
2022/11/24 01:48:40;;;;;;;16.13;4.10;;;;;;;;;;5084683;28;20019;-58
2022/11/24 01:51:12;;;;;;;16.55;3.10;;;;;;;;;;5078433;28;20059;-58
2022/11/24 01:53:38;;;;;;;14.45;3.30;;;;;;;;;;5115186;27;20032;-58
2022/11/24 01:56:03;;;;;;;16.95;4.28;;;;;;;;;;5080688;28;20034;-58
2022/11/24 01:58:29;;;;;;;11.45;3.25;;;;;;;;;;5078750;28;20047;-58
2022/11/24 02:00:54;;;;;;;22.88;3.95;;;;;;;;;;5114000;27;20036;-58
2022/11/24 02:03:20;;;;;;;22.85;4.30;;;;;;;;;;5111469;27;20073;-58
2022/11/24 02:06:04;;;;;;;23.52;4.07;;;;;;;;;;5086199;28;20028;-58
2022/11/24 02:08:33;;;;;;;19.73;4.30;;;;;;;;;;5086813;28;20130;-58
2022/11/24 02:10:58;;;;;;;16.25;3.33;;;;;;;;;;5083247;28;20455;-58
2022/11/24 02:13:23;;;;;;;18.50;3.78;;;;;;;;;;5083249;28;20048;-58
2022/11/24 02:15:48;;;;;;;14.98;3.70;;;;;;;;;;5076431;28;20351;-58
2022/11/24 02:18:14;;;;;;;20.63;3.53;;;;;;;;;;5079771;28;20450;-58
2022/11/24 02:20:39;;;;;;;25.60;4.25;;;;;;;;;;5079775;28;20024;-58
2022/11/24 02:23:08;;;;;;;14.10;4.13;;;;;;;;;;5103686;27;20111;-58
2022/11/24 02:25:52;;;;;;;19.52;3.55;;;;;;;;;;5079236;28;20059;-58
2022/11/24 02:28:18;;;;;;;18.02;3.97;;;;;;;;;;5074186;28;20531;-58
2022/11/24 02:30:43;;;;;;;23.65;4.13;;;;;;;;;;5077318;28;20029;-58
2022/11/24 02:33:09;;;;;;;19.58;3.55;;;;;;;;;;5120738;27;20045;-58
2022/11/24 02:35:34;;;;;;;14.88;4.05;;;;;;;;;;5078546;28;20012;-58
2022/11/24 02:37:59;;;;;;;17.13;3.13;;;;;;;;;;5109594;27;20028;-58
2022/11/24 02:40:25;;;;;;;20.77;4.00;;;;;;;;;;5078638;28;20028;-58
2022/11/24 02:42:54;;;;;;;16.88;4.32;;;;;;;;;;5077622;28;20311;-58
2022/11/24 02:45:19;;;;;;;29.73;4.68;;;;;;;;;;5076361;28;20044;-58
2022/11/24 02:47:44;;;;;;;16.55;3.65;;;;;;;;;;5085973;28;20461;-59
2022/11/24 02:50:10;;;;;;;14.35;2.33;;;;;;;;;;5074181;28;20541;-58
2022/11/24 02:52:35;;;;;;;20.63;3.90;;;;;;;;;;5078885;28;20961;-58
2022/11/24 02:55:00;;;;;;;18.25;3.80;;;;;;;;;;5074022;28;20023;-59
2022/11/24 02:57:25;;;;;;;23.10;3.75;;;;;;;;;;5083950;28;20028;-56
2022/11/24 02:59:51;;;;;;;14.88;2.85;;;;;;;;;;5081397;28;20024;-56
2022/11/24 03:02:16;;;;;;;18.38;4.03;;;;;;;;;;5085391;28;20020;-56
2022/11/24 03:04:43;;;;;;;18.40;3.97;;;;;;;;;;5081338;28;20024;-57
2022/11/24 03:07:08;;;;;;;17.67;3.60;;;;;;;;;;5072233;28;20120;-57
2022/11/24 03:09:34;;;;;;;16.95;3.08;;;;;;;;;;5084931;28;20441;-57
2022/11/24 03:11:59;;;;;;;15.55;3.63;;;;;;;;;;5081047;28;20035;-57
2022/11/24 03:14:24;;;;;;;22.45;4.20;;;;;;;;;;5076424;28;20146;-57
2022/11/24 03:16:50;;;;;;;18.40;3.92;;;;;;;;;;5081126;28;20048;-57
2022/11/24 03:19:15;;;;;;;29.73;4.38;;;;;;;;;;5080266;28;20063;-57
2022/11/24 03:21:40;;;;;;;24.88;4.22;;;;;;;;;;5086135;28;20127;-57
2022/11/24 03:24:05;;;;;;;25.08;3.80;;;;;;;;;;5072628;28;20020;-58
2022/11/24 03:26:31;;;;;;;23.35;4.22;;;;;;;;;;5079217;28;20032;-58
2022/11/24 03:28:57;;;;;;;18.55;3.60;;;;;;;;;;5097399;27;20025;-58
2022/11/24 03:31:22;;;;;;;23.50;3.95;;;;;;;;;;5074816;28;20025;-57
2022/11/24 03:33:48;;;;;;;18.35;3.33;;;;;;;;;;5080162;28;20096;-59
2022/11/24 03:36:13;;;;;;;23.58;4.07;;;;;;;;;;5082366;28;20123;-57
2022/11/24 03:38:38;;;;;;;18.83;3.80;;;;;;;;;;5070162;28;20026;-56
2022/11/24 03:41:04;;;;;;;25.15;3.33;;;;;;;;;;5071979;28;20027;-58
2022/11/24 03:43:29;;;;;;;24.58;4.00;;;;;;;;;;5074056;28;20548;-58
2022/11/24 03:45:54;;;;;;;24.88;3.80;;;;;;;;;;5071336;28;20466;-58
2022/11/24 03:48:20;;;;;;;22.30;4.15;;;;;;;;;;5069128;28;20056;-57
2022/11/24 03:50:52;;;;;;;26.25;4.00;;;;;;;;;;5073720;28;20386;-60
2022/11/24 03:53:17;;;;;;;19.65;3.78;;;;;;;;;;5072981;28;20025;-57
2022/11/24 03:55:42;;;;;;;23.40;4.18;;;;;;;;;;5083187;28;20035;-57
2022/11/24 03:58:08;;;;;;;22.13;3.55;;;;;;;;;;5082985;28;20034;-57
2022/11/24 04:00:33;;;;;;;21.70;4.38;;;;;;;;;;5078373;28;20070;-57
2022/11/24 04:02:58;;;;;;;25.15;3.83;;;;;;;;;;5086530;28;20560;-57
2022/11/24 04:05:24;;;;;;;23.60;4.03;;;;;;;;;;5074660;28;20067;-58
2022/11/24 04:07:49;;;;;;;22.52;4.63;;;;;;;;;;5076993;28;20091;-57
2022/11/24 04:10:14;;;;;;;20.88;3.97;;;;;;;;;;5078656;28;20020;-58
2022/11/24 04:12:45;;;;;;;28.83;4.95;;;;;;;;;;5082057;28;20507;-58
2022/11/24 04:15:11;;;;;;;18.10;3.35;;;;;;;;;;5069279;28;20013;-58
2022/11/24 04:17:37;;;;;;;27.38;3.83;;;;;;;;;;5082284;28;20047;-57
2022/11/24 04:20:02;;;;;;;20.55;4.18;;;;;;;;;;5075234;28;20418;-58
2022/11/24 04:22:27;;;;;;;18.27;4.00;;;;;;;;;;5082715;28;20478;-58
2022/11/24 04:24:52;;;;;;;20.63;3.90;;;;;;;;;;5084456;28;20036;-58
2022/11/24 04:27:18;;;;;;;26.20;4.03;;;;;;;;;;5088326;28;20036;-60
2022/11/24 04:29:43;;;;;;;27.25;3.90;;;;;;;;;;5083643;28;20012;-56
2022/11/24 04:32:08;;;;;;;24.20;4.18;;;;;;;;;;5082581;28;20032;-57
2022/11/24 04:34:34;;;;;;;32.95;4.50;;;;;;;;;;5080414;28;20035;-59
2022/11/24 04:36:59;;;;;;;28.33;4.53;;;;;;;;;;5083373;28;20074;-57
2022/11/24 04:39:24;;;;;;;25.38;4.25;;;;;;;;;;5088138;28;20378;-57
2022/11/24 04:41:49;;;;;;;20.98;3.55;;;;;;;;;;5072881;28;20329;-57
2022/11/24 04:44:15;;;;;;;27.88;4.18;;;;;;;;;;5074075;28;20097;-59
2022/11/24 04:46:40;;;;;;;23.63;3.50;;;;;;;;;;5073036;28;20032;-56
2022/11/24 04:49:05;;;;;;;21.83;3.65;;;;;;;;;;5082434;28;20113;-57
2022/11/24 04:51:30;;;;;;;33.90;3.78;;;;;;;;;;5073556;28;20147;-57
2022/11/24 04:53:55;;;;;;;21.63;3.67;;;;;;;;;;5086896;28;20026;-57
2022/11/24 04:56:21;;;;;;;22.33;4.43;;;;;;;;;;5084112;28;20039;-57
2022/11/24 04:58:46;;;;;;;23.23;3.83;;;;;;;;;;5083507;27;20021;-57
2022/11/24 05:01:12;;;;;;;17.83;3.55;;;;;;;;;;5083704;28;20024;-58
2022/11/24 05:03:37;;;;;;;33.08;4.38;;;;;;;;;;5087715;28;20084;-58
2022/11/24 05:06:02;;;;;;;25.42;4.03;;;;;;;;;;5079503;28;20466;-58
2022/11/24 05:08:28;;;;;;;28.58;5.07;;;;;;;;;;5077938;28;20277;-58
2022/11/24 05:10:53;;;;;;;26.15;4.30;;;;;;;;;;5096601;27;20060;-57
2022/11/24 05:13:18;;;;;;;18.17;3.08;;;;;;;;;;5075920;28;20082;-58
2022/11/24 05:15:43;;;;;;;27.65;4.18;;;;;;;;;;5086999;28;20053;-58
2022/11/24 05:18:12;;;;;;;26.58;3.70;;;;;;;;;;5076725;28;20029;-58
2022/11/24 05:20:37;;;;;;;29.48;4.20;;;;;;;;;;5095538;28;20135;-57
2022/11/24 05:23:03;;;;;;;23.30;3.92;;;;;;;;;;5083033;28;20178;-57
2022/11/24 05:25:28;;;;;;;23.92;4.22;;;;;;;;;;5085304;28;20485;-57
2022/11/24 05:27:53;;;;;;;19.17;3.97;;;;;;;;;;5081435;28;20384;-57
2022/11/24 05:30:18;;;;;;;37.00;4.57;;;;;;;;;;5081678;28;20035;-57
2022/11/24 05:32:44;;;;;;;30.40;3.97;;;;;;;;;;5098909;27;20024;-57
2022/11/24 05:35:09;;;;;;;26.30;4.10;;;;;;;;;;5079076;28;20016;-59
2022/11/24 05:37:34;;;;;;;20.92;3.33;;;;;;;;;;5090487;28;20016;-57
2022/11/24 05:39:59;;;;;;;20.60;3.97;;;;;;;;;;5090044;28;20458;-58
2022/11/24 05:42:40;;;;;;;28.52;3.83;;;;;;;;;;5085347;28;20012;-57
2022/11/24 05:45:14;;;;;;;30.88;4.15;;;;;;;;;;5082648;28;20503;-57
2022/11/24 05:47:40;;;;;;;23.42;3.45;;;;;;;;;;5084538;28;20489;-57
2022/11/24 05:50:05;;;;;;;25.05;3.92;;;;;;;;;;5081512;28;20017;-57
2022/11/24 05:52:30;;;;;;;20.05;3.70;;;;;;;;;;5089873;28;20108;-57
2022/11/24 05:54:56;;;;;;;28.60;3.80;;;;;;;;;;5079262;28;20490;-57
2022/11/24 05:57:21;;;;;;;23.58;4.05;;;;;;;;;;5076706;28;20363;-57
2022/11/24 05:59:46;;;;;;;27.40;4.55;;;;;;;;;;5081689;28;20348;-59
2022/11/24 06:02:11;;;;;;;24.67;3.50;;;;;;;;;;5072687;28;20117;-57
2022/11/24 06:04:37;;;;;;;22.65;3.70;;;;;;;;;;5086048;28;20082;-58
2022/11/24 06:07:02;;;;;;;25.75;3.92;;;;;;;;;;5080975;28;20466;-58
2022/11/24 06:09:27;;;;;;;39.28;5.10;;;;;;;;;;5087761;28;20043;-57
2022/11/24 06:11:53;;;;;;;23.05;4.25;;;;;;;;;;5083798;28;20042;-57
2022/11/24 06:14:18;;;;;;;17.20;3.22;;;;;;;;;;5079753;28;20225;-57
2022/11/24 06:16:43;;;;;;;23.67;4.50;;;;;;;;;;5077728;28;20027;-57
2022/11/24 06:19:11;;;;;;;21.73;3.85;;;;;;;;;;5077765;28;20336;-57
2022/11/24 06:21:36;;;;;;;27.58;3.97;;;;;;;;;;5099324;27;20478;-57
2022/11/24 06:24:02;;;;;;;27.08;4.05;;;;;;;;;;5090082;28;20022;-57
2022/11/24 06:26:27;;;;;;;20.92;3.70;;;;;;;;;;5078096;28;20041;-58
2022/11/24 06:28:52;;;;;;;26.15;3.88;;;;;;;;;;5078785;28;20020;-58
2022/11/24 06:31:17;;;;;;;24.63;3.50;;;;;;;;;;5083297;28;20027;-58
2022/11/24 06:33:43;;;;;;;22.88;4.00;;;;;;;;;;5078087;28;20024;-58
2022/11/24 06:36:09;;;;;;;28.35;4.68;;;;;;;;;;5083940;28;20035;-57
2022/11/24 06:38:34;;;;;;;19.48;3.53;;;;;;;;;;5072901;28;20021;-57
2022/11/24 06:41:06;;;;;;;29.63;4.13;;;;;;;;;;5077043;28;20027;-57
2022/11/24 06:43:32;;;;;;;20.58;3.83;;;;;;;;;;5061003;28;20023;-57
2022/11/24 06:45:57;;;;;;;24.60;3.85;;;;;;;;;;5080953;28;20025;-57
2022/11/24 06:48:22;;;;;;;24.10;3.45;;;;;;;;;;5079496;28;20040;-57
2022/11/24 06:50:48;;;;;;;18.88;3.42;;;;;;;;;;5075181;28;20012;-57
2022/11/24 06:53:14;;;;;;;21.83;4.15;;;;;;;;;;5075240;28;20299;-58
2022/11/24 06:55:39;;;;;;;18.00;3.70;;;;;;;;;;5096018;28;20030;-57
2022/11/24 06:58:04;;;;;;;16.92;3.33;;;;;;;;;;5072008;28;20398;-57
2022/11/24 07:00:33;;;;;;;23.73;3.35;;;;;;;;;;5078834;28;20039;-57
2022/11/24 07:02:58;;;;;;;31.75;4.65;;;;;;;;;;5078538;28;20016;-57
2022/11/24 07:05:23;;;;;;;25.15;4.47;;;;;;;;;;5073215;28;20028;-58
2022/11/24 07:07:49;;;;;;;20.10;3.50;;;;;;;;;;5077349;28;20543;-58
2022/11/24 07:10:14;;;;;;;24.25;3.45;;;;;;;;;;5078602;28;20145;-57
2022/11/24 07:12:39;;;;;;;16.02;2.97;;;;;;;;;;5087200;28;20076;-58
2022/11/24 07:15:05;;;;;;;18.40;3.78;;;;;;;;;;5074584;28;20073;-57
2022/11/24 07:17:30;;;;;;;21.55;3.47;;;;;;;;;;5081413;28;20032;-57
2022/11/24 07:19:55;;;;;;;21.83;3.53;;;;;;;;;;5085411;28;20029;-57
2022/11/24 07:22:21;;;;;;;27.08;3.90;;;;;;;;;;5087304;28;20050;-58
2022/11/24 07:24:46;;;;;;;19.10;3.50;;;;;;;;;;5073010;28;20057;-57
2022/11/24 07:27:11;;;;;;;22.88;3.38;;;;;;;;;;5074652;28;20454;-57
2022/11/24 07:29:36;;;;;;;18.90;3.38;;;;;;;;;;5080587;28;20093;-57
2022/11/24 07:32:01;;;;;;;18.70;3.67;;;;;;;;;;5076963;28;20110;-58
2022/11/24 07:34:27;;;;;;;19.60;3.15;;;;;;;;;;5081891;28;20421;-58
2022/11/24 07:36:52;;;;;;;24.35;4.13;;;;;;;;;;5079157;28;20024;-58
2022/11/24 07:39:17;;;;;;;14.73;2.97;;;;;;;;;;5088278;28;20431;-59
2022/11/24 07:41:43;;;;;;;19.50;3.55;;;;;;;;;;5080082;28;20528;-58
2022/11/24 07:44:08;;;;;;;15.60;3.15;;;;;;;;;;5083921;28;20565;-58
2022/11/24 07:46:33;;;;;;;18.42;3.70;;;;;;;;;;5077777;28;20037;-58
2022/11/24 07:48:58;;;;;;;20.60;3.20;;;;;;;;;;5076623;28;20020;-58
2022/11/24 07:51:24;;;;;;;22.52;3.90;;;;;;;;;;5076719;28;20028;-57
2022/11/24 07:53:49;;;;;;;16.25;3.45;;;;;;;;;;5077723;28;20349;-57
2022/11/24 07:56:14;;;;;;;15.13;3.03;;;;;;;;;;5069357;28;20394;-57
2022/11/24 07:58:39;;;;;;;10.90;3.88;;;;;;;;;;5079693;28;21444;-57
2022/11/24 08:01:14;;;;;;;12.98;3.33;;;;;;;;;;5076629;28;20024;-57
2022/11/24 08:03:40;;;;;;;13.75;3.13;;;;;;;;;;5085281;28;20024;-58
2022/11/24 08:06:05;;;;;;;13.43;2.70;;;;;;;;;;5075185;28;20739;-58
2022/11/24 08:08:32;;;;;;;16.30;3.00;;;;;;;;;;5074448;28;20144;-58
2022/11/24 08:10:57;;;;;;;15.02;3.78;;;;;;;;;;5079027;28;20123;-57
2022/11/24 08:13:22;;;;;;;16.85;2.85;;;;;;;;;;5076357;28;20020;-58
2022/11/24 08:15:48;;;;;;;13.27;3.08;;;;;;;;;;5073350;28;20031;-57
2022/11/24 08:18:13;;;;;;;13.32;2.85;;;;;;;;;;5061306;28;20020;-57
2022/11/24 08:20:38;;;;;;;14.95;3.10;;;;;;;;;;5075203;28;20612;-57
2022/11/24 08:23:03;;;;;;;14.88;3.13;;;;;;;;;;5069528;28;20571;-57
2022/11/24 08:25:32;;;;;;;14.38;2.95;;;;;;;;;;5068681;28;20530;-57
2022/11/24 08:27:58;;;;;;;12.77;2.70;;;;;;;;;;5072563;28;20032;-58
2022/11/24 08:30:23;;;;;;;7.25;2.10;;;;;;;;;;5101512;27;20093;-57
2022/11/24 08:32:48;;;;;;;9.57;2.42;;;;;;;;;;5067003;28;20012;-59
2022/11/24 08:35:14;;;;;;;15.10;3.08;;;;;;;;;;5066466;28;20076;-57
2022/11/24 08:37:39;;;;;;;8.73;2.65;;;;;;;;;;5070945;28;20106;-58
2022/11/24 08:40:05;;;;;;;11.88;2.38;;;;;;;;;;5078879;28;20379;-57
2022/11/24 08:42:30;;;;;;;12.27;2.67;;;;;;;;;;5069574;28;20031;-57
2022/11/24 08:44:55;;;;;;;12.90;2.50;;;;;;;;;;5074452;28;20228;-63
2022/11/24 08:47:20;;;;;;;11.95;2.72;;;;;;;;;;5071607;28;20040;-57
2022/11/24 08:49:46;;;;;;;10.85;2.10;;;;;;;;;;5075127;28;20015;-57
2022/11/24 08:52:11;;;;;;;8.35;2.28;;;;;;;;;;5081396;28;20032;-57
2022/11/24 08:54:36;;;;;;;8.48;2.45;;;;;;;;;;5080467;28;20199;-57
2022/11/24 08:57:01;;;;;;;10.80;2.47;;;;;;;;;;5082656;28;20028;-58
2022/11/24 08:59:26;;;;;;;6.90;1.73;;;;;;;;;;5081566;28;20031;-57
2022/11/24 09:01:52;;;;;;;6.93;2.10;;;;;;;;;;5085823;28;20019;-57
2022/11/24 09:04:17;;;;;;;6.20;2.00;;;;;;;;;;5080149;28;20141;-57
2022/11/24 09:06:42;;;;;;;12.13;2.70;;;;;;;;;;5088323;28;20047;-57
2022/11/24 09:09:08;;;;;;;8.20;1.80;;;;;;;;;;5089707;28;20055;-60
2022/11/24 09:11:33;;;;;;;12.32;2.85;;;;;;;;;;5074515;28;20382;-57
2022/11/24 09:13:58;;;;;;;6.80;2.05;;;;;;;;;;5082361;28;20063;-58
2022/11/24 09:16:24;;;;;;;6.15;1.95;;;;;;;;;;5079234;28;20093;-57
2022/11/24 09:18:53;;;;;;;11.38;2.33;;;;;;;;;;5082977;28;20425;-57
2022/11/24 09:21:19;;;;;;;9.90;2.55;;;;;;;;;;5080901;28;21677;-58
2022/11/24 09:23:45;;;;;;;8.98;2.88;;;;;;;;;;5078893;28;20028;-57
2022/11/24 09:26:20;;;;;;;8.63;2.17;;;;;;;;;;5084366;28;20031;-57
2022/11/24 09:28:46;;;;;;;10.77;2.10;;;;;;;;;;5083261;28;20034;-58
2022/11/24 09:31:12;;;;;;;10.07;2.47;;;;;;;;;;5074440;28;20057;-57
2022/11/24 09:33:37;;;;;;;7.10;2.08;;;;;;;;;;5082410;28;20727;-58
2022/11/24 09:36:03;;;;;;;11.48;2.65;;;;;;;;;;5082969;28;20027;-57
2022/11/24 09:38:28;;;;;;;10.63;2.53;;;;;;;;;;5072650;28;20070;-57
2022/11/24 09:40:53;;;;;;;7.75;2.10;;;;;;;;;;5086827;28;20030;-57
2022/11/24 09:43:28;;;;;;;7.30;2.25;;;;;;;;;;5072263;28;20104;-57
2022/11/24 09:46:19;;;;;;;7.28;2.15;;;;;;;;;;5074244;28;20088;-56
2022/11/24 09:48:48;;;;;;;8.50;2.22;;;;;;;;;;5079271;28;20393;-56
2022/11/24 09:51:14;;;;;;;7.10;2.15;;;;;;;;;;5101387;27;20520;-56
2022/11/24 09:53:43;;;;;;;8.30;2.22;;;;;;;;;;5089090;28;20022;-55
2022/11/24 09:56:18;;;;;;;8.57;2.20;;;;;;;;;;5078083;28;20115;-57
2022/11/24 09:58:43;;;;;;;8.43;2.10;;;;;;;;;;5113254;27;20294;-57
2022/11/24 10:01:44;;;;;;;9.65;2.60;;;;;;;;;;5088562;28;20024;-57
2022/11/24 10:04:29;;;;;;;11.48;3.25;;;;;;;;;;5056242;28;20020;-56
2022/11/24 10:07:00;;;;;;;10.00;2.78;;;;;;;;;;5067090;28;20071;-57
2022/11/24 10:09:31;;;;;;;11.07;2.67;;;;;;;;;;5080967;28;20024;-57
2022/11/24 10:12:08;;;;;;;7.95;2.50;;;;;;;;;;5083231;28;20028;-56
2022/11/24 10:14:52;;;;;;;7.82;2.42;;;;;;;;;;5084754;28;20032;-57
2022/11/24 10:17:36;;;;;;;7.18;2.20;;;;;;;;;;5085510;28;20414;-57
2022/11/24 10:20:08;;;;;;;11.48;2.25;;;;;;;;;;5078423;28;20433;-56
2022/11/24 10:22:51;;;;;;;10.98;2.53;;;;;;;;;;5075389;28;20028;-56
2022/11/24 10:25:16;;;;;;;12.77;2.45;;;;;;;;;;5071341;28;20019;-58
2022/11/24 10:27:41;;;;;;;9.25;2.20;;;;;;;;;;5078858;28;20028;-56
2022/11/24 10:30:11;;;;;;;10.20;2.22;;;;;;;;;;5078360;28;20104;-56
2022/11/24 10:32:36;;;;;;;6.82;2.35;;;;;;;;;;5082350;28;20032;-57
2022/11/24 10:35:18;;;;;;;11.57;2.30;;;;;;;;;;5073915;28;20016;-57
2022/11/24 10:37:57;;;;;;;9.18;2.58;;;;;;;;;;5091542;28;20027;-57
2022/11/24 10:40:24;;;;;;;8.82;2.15;;;;;;;;;;5080874;28;20535;-56
2022/11/24 10:42:51;;;;;;;6.45;1.98;;;;;;;;;;5071031;28;20131;-58
2022/11/24 10:45:18;;;;;;;13.05;2.42;;;;;;;;;;5076254;28;20032;-57
2022/11/24 10:47:43;;;;;;;9.93;2.00;;;;;;;;;;5069660;28;20031;-56
2022/11/24 10:50:08;;;;;;;10.50;2.92;;;;;;;;;;5082973;28;20019;-57
2022/11/24 10:52:36;;;;;;;10.10;2.33;;;;;;;;;;5077785;28;20036;-57
2022/11/24 10:55:02;;;;;;;10.20;2.38;;;;;;;;;;5080751;28;20024;-58
2022/11/24 10:57:30;;;;;;;10.88;2.25;;;;;;;;;;5081171;28;20191;-58
2022/11/24 10:59:55;;;;;;;10.73;2.20;;;;;;;;;;5081748;28;20016;-57
2022/11/24 11:02:28;;;;;;;8.93;2.25;;;;;;;;;;5084452;28;20040;-57
2022/11/24 11:04:53;;;;;;;10.73;2.30;;;;;;;;;;5075368;28;20060;-56
2022/11/24 11:07:20;;;;;;;10.73;2.28;;;;;;;;;;5078880;28;20064;-57
2022/11/24 11:09:45;;;;;;;11.00;2.35;;;;;;;;;;5075633;28;20032;-57
2022/11/24 11:12:14;;;;;;;10.93;2.55;;;;;;;;;;5080802;28;20081;-57
2022/11/24 11:14:39;;;;;;;9.57;2.40;;;;;;;;;;5082595;28;20015;-55
2022/11/24 11:17:23;;;;;;;11.18;2.40;;;;;;;;;;5085942;28;20080;-57
2022/11/24 11:19:50;;;;;;;9.57;2.00;;;;;;;;;;5080655;28;20427;-57
2022/11/24 11:22:25;;;;;;;9.98;2.53;;;;;;;;;;5094684;28;20027;-57
2022/11/24 11:25:00;;;;;;;16.05;2.47;;;;;;;;;;5077312;28;20028;-58
2022/11/24 11:27:26;;;;;;;9.63;2.33;;;;;;;;;;5078484;28;20040;-58
2022/11/24 11:29:51;;;;;;;11.10;2.25;;;;;;;;;;5077518;28;20386;-57
2022/11/24 11:32:16;;;;;;;10.00;2.03;;;;;;;;;;5069180;28;20399;-58
2022/11/24 11:34:41;;;;;;;15.68;2.50;;;;;;;;;;5076771;28;20055;-57
2022/11/24 11:37:07;;;;;;;9.90;2.20;;;;;;;;;;5069662;28;20020;-58
2022/11/24 11:39:36;;;;;;;8.73;1.98;;;;;;;;;;5073663;28;20027;-58
2022/11/24 11:42:21;;;;;;;8.70;1.98;;;;;;;;;;5077092;28;20339;-57
2022/11/24 11:44:47;;;;;;;11.95;2.17;;;;;;;;;;5072752;28;20008;-58
2022/11/24 11:47:14;;;;;;;10.77;2.33;;;;;;;;;;5105296;27;20089;-56
2022/11/24 11:49:40;;;;;;;9.07;2.00;;;;;;;;;;5068861;28;20031;-58
2022/11/24 11:52:17;;;;;;;9.60;2.08;;;;;;;;;;5081735;28;20161;-57
2022/11/24 11:54:42;;;;;;;9.40;2.30;;;;;;;;;;5074515;28;21112;-58
2022/11/24 11:57:16;;;;;;;12.57;2.30;;;;;;;;;;5081649;28;20028;-55
2022/11/24 11:59:41;;;;;;;11.10;2.60;;;;;;;;;;5082504;28;20024;-57
2022/11/24 12:02:26;;;;;;;9.68;2.38;;;;;;;;;;5073166;28;20024;-56
2022/11/24 12:04:52;;;;;;;9.73;2.13;;;;;;;;;;5066746;28;20031;-57
2022/11/24 12:07:18;;;;;;;7.85;2.08;;;;;;;;;;5075708;28;20044;-58
2022/11/24 12:09:46;;;;;;;10.77;2.25;;;;;;;;;;5074818;28;20024;-58
2022/11/24 12:12:34;;;;;;;9.88;2.67;;;;;;;;;;5070851;28;20115;-58
2022/11/24 12:15:04;;;;;;;7.65;1.85;;;;;;;;;;5071637;28;20104;-57
2022/11/24 12:17:33;;;;;;;13.50;1.83;;;;;;;;;;5066288;28;20032;-57
2022/11/24 12:20:14;;;;;;;9.57;2.15;;;;;;;;;;5073099;28;20366;-57
2022/11/24 12:22:47;;;;;;;8.63;1.80;;;;;;;;;;5080064;28;20089;-57
2022/11/24 12:25:18;;;;;;;11.65;2.25;;;;;;;;;;5072297;28;20488;-58
2022/11/24 12:27:46;;;;;;;8.55;1.95;;;;;;;;;;5072750;28;20024;-58
2022/11/24 12:30:18;;;;;;;8.32;2.25;;;;;;;;;;5073626;28;20044;-57
2022/11/24 12:33:22;;;;;;;10.90;2.03;;;;;;;;;;5109206;27;20023;-55
2022/11/24 12:36:02;;;;;;;9.65;3.28;;;;;;;;;;4996811;28;20022;-58
2022/11/24 12:38:27;;;;;;;;;;;;;;;;;;5013629;28;20055;-55
2022/11/24 12:41:11;;;;;;;10.68;2.42;;;;;;;;;;5042017;28;19908;-58
2022/11/24 12:43:36;;;;;;;12.57;2.13;;;;;;;;;;5073830;28;20376;-58
2022/11/24 12:46:05;;;;;;;12.65;2.15;;;;;;;;;;5072647;28;20126;-56
2022/11/24 12:48:30;;;;;;;10.30;2.28;;;;;;;;;;5079755;28;20029;-58
2022/11/24 12:50:55;;;;;;;9.50;2.25;;;;;;;;;;5082765;28;20020;-58
2022/11/24 12:53:27;;;;;;;9.45;2.00;;;;;;;;;;5072003;28;20032;-58
2022/11/24 12:55:53;;;;;;;12.75;2.22;;;;;;;;;;5086948;28;20381;-55
2022/11/24 12:58:18;;;;;;;11.15;2.10;;;;;;;;;;5076511;28;20035;-55
2022/11/24 13:00:46;;;;;;;16.73;2.45;;;;;;;;;;5076763;28;20436;-56
2022/11/24 13:03:17;;;;;;;10.45;2.10;;;;;;;;;;5079591;28;20035;-58
2022/11/24 13:06:12;;;;;;;11.02;2.15;;;;;;;;;;5126594;27;20076;-55
2022/11/24 13:08:37;;;;;;;10.95;2.17;;;;;;;;;;5078534;28;20039;-55
2022/11/24 13:11:21;;;;;;;8.38;2.33;;;;;;;;;;5080334;28;20024;-57
2022/11/24 13:13:57;;;;;;;10.18;2.10;;;;;;;;;;5081057;28;20164;-56
2022/11/24 13:16:22;;;;;;;13.32;2.30;;;;;;;;;;5105715;27;20030;-56
2022/11/24 13:18:55;;;;;;;7.25;2.03;;;;;;;;;;5077923;28;20107;-58
2022/11/24 13:21:30;;;;;;;12.38;2.17;;;;;;;;;;5076461;28;20033;-57
2022/11/24 13:23:59;;;;;;;7.43;1.83;;;;;;;;;;5078720;28;20043;-57
2022/11/24 13:26:28;;;;;;;8.90;2.10;;;;;;;;;;5075833;28;20031;-56
2022/11/24 13:28:55;;;;;;;12.88;2.75;;;;;;;;;;5087143;28;20074;-56
2022/11/24 13:31:21;;;;;;;15.10;2.90;;;;;;;;;;5076130;28;20067;-56
2022/11/24 13:33:46;;;;;;;13.98;3.15;;;;;;;;;;5084564;28;20058;-56
2022/11/24 13:36:23;;;;;;;11.63;2.97;;;;;;;;;;5081245;28;20343;-55
2022/11/24 13:38:49;;;;;;;15.82;2.95;;;;;;;;;;5077185;28;20524;-56
2022/11/24 13:41:33;;;;;;;8.38;2.40;;;;;;;;;;5085179;28;20051;-56
2022/11/24 13:44:24;;;;;;;8.57;2.20;;;;;;;;;;5079337;28;20396;-56
2022/11/24 13:46:55;;;;;;;10.05;2.35;;;;;;;;;;5071627;28;20044;-56
2022/11/24 13:49:21;;;;;;;12.80;2.35;;;;;;;;;;5079171;28;20031;-55
2022/11/24 13:51:46;;;;;;;12.77;2.45;;;;;;;;;;5083064;28;20207;-56
2022/11/24 13:54:11;;;;;;;14.18;2.47;;;;;;;;;;5079034;28;20028;-58
2022/11/24 13:56:36;;;;;;;16.50;3.05;;;;;;;;;;5081927;28;20474;-55
2022/11/24 13:59:14;;;;;;;23.27;3.55;;;;;;;;;;5079748;28;20025;-56
2022/11/24 14:01:41;;;;;;;9.90;2.20;;;;;;;;;;5083355;28;20035;-56
2022/11/24 14:04:15;;;;;;;12.27;2.35;;;;;;;;;;5090522;28;20073;-56
2022/11/24 14:06:41;;;;;;;14.43;3.15;;;;;;;;;;5076036;28;20048;-56
2022/11/24 14:09:16;;;;;;;17.45;4.63;;;;;;;;;;5090366;28;20035;-56
2022/11/24 14:11:41;;;;;;;13.45;2.72;;;;;;;;;;5066791;28;20054;-56
2022/11/24 14:14:13;;;;;;;18.73;3.33;;;;;;;;;;5077010;28;20462;-56
2022/11/24 14:16:38;;;;;;;10.05;2.58;;;;;;;;;;5074514;28;20024;-56
2022/11/24 14:19:07;;;;;;;17.52;2.38;;;;;;;;;;5080971;28;20020;-55
2022/11/24 14:21:34;;;;;;;16.23;3.10;;;;;;;;;;5089138;28;20546;-56
2022/11/24 14:23:59;;;;;;;12.77;3.03;;;;;;;;;;5089144;28;20043;-57
2022/11/24 14:26:32;;;;;;;22.77;11.20;;;;;;;;;;5080578;28;20033;-56
2022/11/24 14:29:04;;;;;;;15.80;2.78;;;;;;;;;;5085013;28;20066;-56
2022/11/24 14:31:29;;;;;;;12.57;3.83;;;;;;;;;;5083896;28;20546;-57
2022/11/24 14:34:09;;;;;;;21.15;10.98;;;;;;;;;;5090608;28;20111;-56
2022/11/24 14:36:35;;;;;;;18.23;3.97;;;;;;;;;;5085204;28;20306;-55